createdAt,value
2023-02-20T00:01:06.280Z,5.05
2023-02-20T00:04:09.584Z,5.04
2023-02-20T00:07:11.751Z,4.92
2023-02-20T00:10:15.039Z,4.95
2023-02-20T00:13:17.235Z,5.00
2023-02-20T00:16:19.718Z,5.05
2023-02-20T00:19:21.859Z,5.01
2023-02-20T00:22:25.759Z,4.97
2023-02-20T00:25:27.861Z,4.91
2023-02-20T00:28:30.303Z,5.02
2023-02-20T00:31:32.459Z,4.99
2023-02-20T00:34:35.308Z,4.84
2023-02-20T00:37:41.220Z,4.87
2023-02-20T00:40:43.782Z,4.92
2023-02-20T00:43:48.405Z,4.74
2023-02-20T00:46:51.224Z,4.76
2023-02-20T00:49:53.332Z,4.74
2023-02-20T00:52:58.325Z,4.66
2023-02-20T00:56:00.484Z,4.65
2023-02-20T00:59:02.991Z,4.61
2023-02-20T01:02:05.195Z,4.50
2023-02-20T01:05:08.580Z,4.50
2023-02-20T01:08:11.164Z,4.62
2023-02-20T01:11:13.652Z,4.62
2023-02-20T01:14:15.843Z,4.61
2023-02-20T01:17:18.351Z,4.58
2023-02-20T01:20:20.586Z,4.67
2023-02-20T01:23:23.040Z,4.80
2023-02-20T01:26:25.163Z,4.74
2023-02-20T01:29:27.566Z,4.62
2023-02-20T01:32:29.761Z,4.53
2023-02-20T01:35:33.274Z,4.43
2023-02-20T01:38:35.408Z,4.36
2023-02-20T01:41:39.218Z,4.39
2023-02-20T01:44:42.276Z,4.32
2023-02-20T01:47:45.491Z,4.33
2023-02-20T01:50:50.554Z,4.26
2023-02-20T01:53:53.058Z,4.17
2023-02-20T01:56:58.766Z,4.13
2023-02-20T02:00:10.345Z,4.15
2023-02-20T02:03:22.067Z,4.12
2023-02-20T02:06:25.662Z,3.98
2023-02-20T02:09:49.252Z,3.86
2023-02-20T02:12:53.778Z,3.63
2023-02-20T02:16:33.180Z,3.64
2023-02-20T02:20:12.819Z,3.83
2023-02-20T02:23:55.581Z,3.73
2023-02-20T02:27:28.911Z,3.57
2023-02-20T02:30:49.594Z,3.52
2023-02-20T02:34:11.398Z,3.38
2023-02-20T02:37:40.813Z,3.47
2023-02-20T02:41:05.733Z,3.52
2023-02-20T02:44:15.737Z,3.46
2023-02-20T02:47:29.610Z,3.44
2023-02-20T02:50:38.919Z,3.40
2023-02-20T02:54:11.249Z,3.40
2023-02-20T02:57:24.600Z,3.29
2023-02-20T03:00:43.773Z,3.34
2023-02-20T03:03:47.320Z,3.47
2023-02-20T03:06:53.032Z,3.47
2023-02-20T03:10:00.524Z,3.49
2023-02-20T03:13:05.576Z,3.48
2023-02-20T03:16:09.469Z,3.49
2023-02-20T03:19:15.873Z,3.42
2023-02-20T03:22:38.250Z,3.38
2023-02-20T03:26:01.169Z,3.43
2023-02-20T03:29:12.805Z,3.40
2023-02-20T03:32:36.149Z,3.29
2023-02-20T03:35:59.942Z,3.46
2023-02-20T03:39:26.504Z,3.23
2023-02-20T03:42:50.258Z,3.14
2023-02-20T03:46:02.510Z,3.14
2023-02-20T03:49:30.282Z,3.12
2023-02-20T03:52:33.155Z,3.03
2023-02-20T03:55:35.481Z,2.99
2023-02-20T03:58:45.517Z,3.01
2023-02-20T04:01:52.557Z,2.95
2023-02-20T04:05:00.977Z,2.92
2023-02-20T04:08:11.521Z,2.85
2023-02-20T04:11:28.426Z,2.97
2023-02-20T04:14:32.320Z,2.91
2023-02-20T04:17:42.332Z,2.86
2023-02-20T04:20:53.063Z,2.90
2023-02-20T04:24:06.590Z,2.94
2023-02-20T04:27:09.724Z,2.90
2023-02-20T04:30:13.786Z,2.96
2023-02-20T04:33:16.667Z,2.97
2023-02-20T04:36:19.729Z,2.83
2023-02-20T04:39:22.240Z,2.94
2023-02-20T04:42:24.956Z,2.96
2023-02-20T04:45:28.108Z,2.96
2023-02-20T04:48:31.151Z,2.96
2023-02-20T04:51:33.639Z,3.01
2023-02-20T04:54:36.133Z,3.10
2023-02-20T04:57:38.681Z,3.10
2023-02-20T05:00:41.104Z,3.22
2023-02-20T05:03:43.249Z,3.21
2023-02-20T05:06:51.960Z,3.24
2023-02-20T05:09:54.190Z,3.39
2023-02-20T05:12:58.405Z,3.31
2023-02-20T05:16:00.549Z,3.33
2023-02-20T05:19:03.044Z,3.41
2023-02-20T05:22:20.178Z,3.32
2023-02-20T05:25:22.664Z,3.39
2023-02-20T05:28:24.876Z,3.44
2023-02-20T05:31:27.480Z,3.36
2023-02-20T05:34:29.877Z,3.34
2023-02-20T05:37:33.755Z,3.27
2023-02-20T05:40:36.085Z,3.27
2023-02-20T05:43:38.481Z,3.38
2023-02-20T05:46:42.390Z,3.45
2023-02-20T05:49:48.199Z,3.41
2023-02-20T05:52:50.338Z,3.52
2023-02-20T05:55:52.727Z,3.61
2023-02-20T05:58:54.867Z,3.73
2023-02-20T06:01:59.376Z,3.68
2023-02-20T06:05:01.889Z,3.58
2023-02-20T06:08:04.769Z,3.64
2023-02-20T06:11:07.939Z,3.59
2023-02-20T06:14:10.309Z,3.57
2023-02-20T06:17:12.799Z,3.62
2023-02-20T06:20:15.426Z,3.49
2023-02-20T06:23:17.851Z,3.55
2023-02-20T06:26:21.951Z,3.45
2023-02-20T06:29:24.932Z,3.40
2023-02-20T06:32:27.701Z,3.47
2023-02-20T06:35:30.194Z,3.48
2023-02-20T06:38:32.323Z,3.55
2023-02-20T06:41:34.977Z,3.46
2023-02-20T06:44:37.353Z,3.48
2023-02-20T06:47:39.980Z,3.53
2023-02-20T06:50:42.116Z,3.53
2023-02-20T06:53:44.717Z,3.60
2023-02-20T06:56:46.856Z,3.69
2023-02-20T06:59:49.868Z,3.77
2023-02-20T07:02:52.226Z,3.87
2023-02-20T07:05:54.737Z,3.90
2023-02-20T07:08:56.995Z,3.99
2023-02-20T07:11:59.753Z,3.99
2023-02-20T07:15:01.974Z,4.04
2023-02-20T07:18:04.901Z,4.10
2023-02-20T07:21:07.468Z,4.06
2023-02-20T07:24:09.973Z,4.20
2023-02-20T07:27:14.964Z,4.25
2023-02-20T07:30:19.013Z,4.26
2023-02-20T07:33:21.270Z,4.19
2023-02-20T07:36:24.060Z,4.20
2023-02-20T07:39:27.348Z,4.25
2023-02-20T07:42:30.050Z,4.23
2023-02-20T07:45:34.360Z,4.26
2023-02-20T07:48:37.084Z,4.44
2023-02-20T07:51:39.420Z,4.55
2023-02-20T07:54:41.884Z,4.71
2023-02-20T07:57:47.336Z,4.73
2023-02-20T08:00:51.760Z,4.79
2023-02-20T08:03:54.252Z,4.86
2023-02-20T08:06:56.444Z,4.94
2023-02-20T08:09:58.944Z,5.12
2023-02-20T08:13:02.417Z,5.00
2023-02-20T08:16:05.328Z,5.11
2023-02-20T08:19:07.716Z,5.20
2023-02-20T08:22:10.198Z,5.35
2023-02-20T08:25:13.054Z,5.25
2023-02-20T08:28:15.553Z,5.28
2023-02-20T08:31:31.312Z,5.28
2023-02-20T08:34:34.899Z,5.38
2023-02-20T08:37:37.078Z,5.44
2023-02-20T08:40:39.630Z,5.24
2023-02-20T08:43:43.787Z,5.31
2023-02-20T08:46:50.983Z,5.40
2023-02-20T08:49:53.207Z,5.56
2023-02-20T08:52:55.701Z,5.54
2023-02-20T08:55:57.896Z,5.75
2023-02-20T08:59:00.295Z,5.55
2023-02-20T09:02:02.538Z,5.41
2023-02-20T09:05:08.792Z,5.37
2023-02-20T09:08:13.688Z,5.51
2023-02-20T09:11:16.499Z,5.60
2023-02-20T09:14:18.792Z,5.56
2023-02-20T09:17:21.313Z,5.69
2023-02-20T09:20:23.517Z,5.77
2023-02-20T09:23:27.269Z,5.87
2023-02-20T09:26:29.413Z,6.08
2023-02-20T09:29:31.980Z,6.16
2023-02-20T09:32:34.312Z,6.27
2023-02-20T09:35:36.912Z,6.14
2023-02-20T09:38:39.076Z,6.16
2023-02-20T09:41:42.528Z,6.27
2023-02-20T09:44:56.079Z,6.40
2023-02-20T09:47:58.447Z,6.63
2023-02-20T09:51:09.041Z,6.72
2023-02-20T09:54:21.497Z,6.42
2023-02-20T09:57:27.152Z,6.42
2023-02-20T10:00:36.267Z,6.54
2023-02-20T10:03:58.797Z,6.58
2023-02-20T10:07:15.234Z,6.75
2023-02-20T10:10:23.326Z,6.88
2023-02-20T10:13:40.949Z,7.22
2023-02-20T10:17:02.902Z,7.46
2023-02-20T10:20:38.292Z,7.38
2023-02-20T10:24:05.251Z,7.55
2023-02-20T10:27:26.219Z,7.85
2023-02-20T10:30:45.597Z,7.70
2023-02-20T10:34:03.695Z,7.73
2023-02-20T10:37:15.489Z,7.78
2023-02-20T10:40:28.336Z,7.83
2023-02-20T10:43:40.490Z,8.07
2023-02-20T10:47:07.805Z,8.21
2023-02-20T10:50:37.844Z,8.27
2023-02-20T10:53:53.548Z,8.40
2023-02-20T10:57:20.724Z,8.34
2023-02-20T11:00:32.982Z,8.49
2023-02-20T11:03:52.290Z,8.59
2023-02-20T11:06:57.189Z,8.79
2023-02-20T11:09:59.966Z,8.79
2023-02-20T11:13:02.828Z,8.82
2023-02-20T11:16:05.878Z,8.93
2023-02-20T11:19:20.729Z,8.95
2023-02-20T11:22:43.942Z,9.16
2023-02-20T11:25:47.849Z,9.42
2023-02-20T11:29:18.032Z,9.65
2023-02-20T11:32:20.225Z,9.78
2023-02-20T11:35:26.871Z,9.99
2023-02-20T11:38:33.569Z,10.12
2023-02-20T11:41:37.190Z,10.26
2023-02-20T11:44:39.434Z,10.40
2023-02-20T11:47:42.659Z,10.39
2023-02-20T11:51:02.890Z,10.54
2023-02-20T11:54:29.500Z,10.61
2023-02-20T11:57:31.859Z,10.62
2023-02-20T12:00:47.238Z,10.71
2023-02-20T12:03:56.191Z,10.75
2023-02-20T12:06:58.497Z,10.91
2023-02-20T12:10:10.247Z,11.01
2023-02-20T12:13:17.252Z,11.13
2023-02-20T12:16:30.321Z,11.36
2023-02-20T12:20:09.321Z,11.54
2023-02-20T12:23:14.668Z,11.74
2023-02-20T12:26:31.646Z,11.90
2023-02-20T12:29:50.212Z,11.82
2023-02-20T12:33:11.516Z,11.93
2023-02-20T12:36:32.225Z,12.01
2023-02-20T12:39:44.196Z,11.92
2023-02-20T12:43:13.420Z,11.94
2023-02-20T12:46:23.692Z,12.05
2023-02-20T12:49:51.463Z,12.04
2023-02-20T12:53:14.586Z,12.06
2023-02-20T12:56:39.660Z,12.11
2023-02-20T12:59:58.924Z,12.03
2023-02-20T13:03:19.099Z,11.98
2023-02-20T13:06:32.964Z,11.99
2023-02-20T13:09:40.481Z,12.20
2023-02-20T13:12:43.880Z,12.16
2023-02-20T13:15:46.323Z,12.35
2023-02-20T13:19:05.140Z,12.31
2023-02-20T13:22:08.165Z,12.29
2023-02-20T13:25:41.132Z,12.38
2023-02-20T13:28:45.570Z,12.31
2023-02-20T13:31:50.851Z,12.25
2023-02-20T13:35:34.292Z,12.27
2023-02-20T13:38:36.595Z,12.31
2023-02-20T13:41:54.735Z,12.27
2023-02-20T13:44:57.284Z,12.33
2023-02-20T13:48:18.518Z,12.35
2023-02-20T13:51:25.357Z,12.38
2023-02-20T13:54:28.943Z,12.34
2023-02-20T13:57:36.007Z,12.35
2023-02-20T14:00:45.443Z,12.38
2023-02-20T14:04:03.519Z,12.23
2023-02-20T14:07:06.062Z,12.19
2023-02-20T14:10:36.497Z,12.19
2023-02-20T14:13:44.130Z,12.29
2023-02-20T14:16:46.791Z,12.14
2023-02-20T14:20:08.598Z,12.15
2023-02-20T14:23:26.064Z,12.26
2023-02-20T14:26:34.004Z,12.25
2023-02-20T14:29:37.592Z,12.27
2023-02-20T14:32:44.898Z,12.31
2023-02-20T14:36:02.413Z,12.30
2023-02-20T14:39:42.122Z,12.42
2023-02-20T14:42:46.615Z,12.69
2023-02-20T14:46:18.582Z,13.13
2023-02-20T14:49:27.162Z,13.44
2023-02-20T14:52:29.901Z,13.40
2023-02-20T14:55:32.336Z,13.13
2023-02-20T14:58:38.662Z,12.82
2023-02-20T15:01:41.595Z,12.58
2023-02-20T15:04:53.301Z,12.18
2023-02-20T15:08:18.798Z,11.96
2023-02-20T15:11:21.111Z,11.84
2023-02-20T15:14:26.961Z,11.65
2023-02-20T15:17:32.511Z,11.62
2023-02-20T15:20:41.683Z,11.59
2023-02-20T15:23:45.514Z,11.54
2023-02-20T15:26:47.925Z,11.39
2023-02-20T15:30:11.002Z,11.44
2023-02-20T15:33:13.551Z,11.32
2023-02-20T15:36:19.528Z,11.37
2023-02-20T15:39:22.642Z,11.35
2023-02-20T15:42:25.051Z,11.30
2023-02-20T15:45:29.716Z,11.31
2023-02-20T15:48:31.913Z,11.25
2023-02-20T15:51:39.204Z,11.16
2023-02-20T15:54:41.611Z,11.05
2023-02-20T15:57:48.648Z,11.02
2023-02-20T16:00:51.764Z,10.88
2023-02-20T16:03:54.261Z,10.76
2023-02-20T16:06:56.483Z,10.66
2023-02-20T16:09:58.855Z,10.66
2023-02-20T16:13:02.141Z,10.52
2023-02-20T16:16:41.834Z,10.50
2023-02-20T16:19:43.959Z,10.49
2023-02-20T16:22:46.526Z,10.47
2023-02-20T16:25:50.668Z,10.36
2023-02-20T16:28:59.004Z,10.25
2023-02-20T16:32:01.269Z,10.16
2023-02-20T16:35:04.410Z,10.16
2023-02-20T16:38:06.565Z,10.11
2023-02-20T16:41:11.693Z,10.11
2023-02-20T16:44:36.663Z,9.98
2023-02-20T16:47:39.185Z,9.87
2023-02-20T16:50:41.476Z,9.84
2023-02-20T16:53:43.904Z,9.87
2023-02-20T16:56:46.003Z,9.81
2023-02-20T16:59:48.552Z,9.78
2023-02-20T17:02:51.586Z,9.60
2023-02-20T17:05:59.419Z,9.58
2023-02-20T17:09:01.679Z,9.52
2023-02-20T17:12:05.081Z,9.41
2023-02-20T17:15:08.528Z,9.35
2023-02-20T17:18:11.016Z,9.33
2023-02-20T17:21:13.367Z,9.32
2023-02-20T17:24:16.806Z,9.23
2023-02-20T17:27:19.960Z,9.13
2023-02-20T17:30:24.390Z,9.11
2023-02-20T17:33:28.694Z,9.05
2023-02-20T17:36:31.986Z,8.98
2023-02-20T17:39:34.907Z,8.98
2023-02-20T17:42:40.058Z,8.91
2023-02-20T17:45:42.379Z,8.92
2023-02-20T17:48:44.955Z,8.88
2023-02-20T17:51:50.470Z,8.76
2023-02-20T17:54:55.437Z,8.78
2023-02-20T17:57:57.692Z,8.75
2023-02-20T18:01:00.204Z,8.65
2023-02-20T18:04:05.782Z,8.58
2023-02-20T18:07:10.388Z,8.56
2023-02-20T18:10:12.976Z,8.40
2023-02-20T18:13:15.132Z,8.40
2023-02-20T18:16:17.650Z,8.36
2023-02-20T18:19:20.429Z,8.33
2023-02-20T18:22:23.156Z,8.32
2023-02-20T18:25:39.543Z,8.28
2023-02-20T18:28:43.848Z,8.22
2023-02-20T18:31:46.412Z,8.15
2023-02-20T18:34:49.211Z,8.03
2023-02-20T18:37:51.740Z,7.95
2023-02-20T18:40:54.586Z,7.91
2023-02-20T18:43:56.992Z,7.84
2023-02-20T18:47:00.453Z,7.83
2023-02-20T18:50:03.362Z,7.87
2023-02-20T18:53:06.064Z,7.98
2023-02-20T18:56:13.271Z,8.11
2023-02-20T18:59:17.764Z,8.29
2023-02-20T19:02:20.011Z,8.44
2023-02-20T19:05:24.263Z,8.55
2023-02-20T19:08:26.485Z,8.72
2023-02-20T19:11:30.557Z,9.02
2023-02-20T19:14:33.535Z,9.20
2023-02-20T19:17:37.853Z,9.27
2023-02-20T19:20:40.055Z,9.29
2023-02-20T19:23:43.474Z,9.40
2023-02-20T19:26:45.643Z,9.46
2023-02-20T19:29:48.093Z,9.48
2023-02-20T19:32:50.431Z,9.61
2023-02-20T19:35:53.094Z,9.67
2023-02-20T19:38:55.422Z,9.65
2023-02-20T19:41:57.928Z,9.72
2023-02-20T19:45:00.136Z,9.79
2023-02-20T19:48:02.889Z,9.68
2023-02-20T19:51:08.753Z,9.68
2023-02-20T19:54:11.309Z,9.78
2023-02-20T19:57:14.473Z,9.73
2023-02-20T20:00:18.875Z,9.84
2023-02-20T20:03:21.466Z,9.78
2023-02-20T20:06:26.563Z,9.76
2023-02-20T20:09:36.199Z,9.69
2023-02-20T20:12:48.425Z,9.67
2023-02-20T20:15:51.107Z,9.70
2023-02-20T20:18:53.409Z,9.73
2023-02-20T20:21:55.916Z,9.77
2023-02-20T20:24:58.759Z,9.72
2023-02-20T20:28:02.783Z,9.67
2023-02-20T20:31:06.131Z,9.58
2023-02-20T20:34:09.306Z,9.52
2023-02-20T20:37:11.428Z,9.59
2023-02-20T20:40:14.450Z,9.57
2023-02-20T20:43:16.810Z,9.49
2023-02-20T20:46:19.441Z,9.44
2023-02-20T20:49:22.503Z,9.40
2023-02-20T20:52:26.762Z,9.46
2023-02-20T20:55:29.643Z,9.51
2023-02-20T20:58:32.130Z,9.43
2023-02-20T21:01:34.342Z,9.42
2023-02-20T21:04:36.879Z,9.50
2023-02-20T21:07:39.585Z,9.45
2023-02-20T21:10:41.999Z,9.36
2023-02-20T21:13:47.746Z,9.26
2023-02-20T21:16:50.196Z,9.29
2023-02-20T21:19:52.370Z,9.28
2023-02-20T21:22:55.155Z,9.22
2023-02-20T21:25:57.411Z,9.22
2023-02-20T21:29:00.022Z,9.21
2023-02-20T21:32:02.440Z,9.13
2023-02-20T21:35:05.754Z,9.17
2023-02-20T21:38:07.953Z,9.17
2023-02-20T21:41:30.537Z,9.13
2023-02-20T21:44:32.752Z,9.12
2023-02-20T21:47:35.492Z,9.08
2023-02-20T21:50:37.686Z,9.09
2023-02-20T21:53:40.134Z,8.98
2023-02-20T21:56:42.813Z,8.95
2023-02-20T21:59:47.380Z,8.94
2023-02-20T22:02:49.666Z,8.95
2023-02-20T22:05:52.725Z,8.87
2023-02-20T22:09:14.359Z,8.84
2023-02-20T22:12:35.755Z,8.80
2023-02-20T22:15:56.580Z,8.77
2023-02-20T22:19:17.393Z,8.90
2023-02-20T22:22:38.240Z,8.90
2023-02-20T22:26:01.862Z,8.88
2023-02-20T22:29:23.458Z,9.01
2023-02-20T22:32:45.947Z,9.11
2023-02-20T22:36:07.038Z,9.11
2023-02-20T22:39:31.984Z,8.97
2023-02-20T22:42:52.674Z,8.74
2023-02-20T22:46:14.355Z,8.48
2023-02-20T22:49:35.286Z,8.23
2023-02-20T22:52:56.427Z,7.85
2023-02-20T22:56:17.157Z,7.61
2023-02-20T22:59:38.164Z,7.49
2023-02-20T23:02:59.076Z,7.30
2023-02-20T23:06:20.329Z,7.30
2023-02-20T23:09:41.389Z,7.15
2023-02-20T23:13:02.503Z,7.03
2023-02-20T23:16:23.228Z,7.00
2023-02-20T23:19:44.145Z,6.98
2023-02-20T23:23:06.169Z,7.00
2023-02-20T23:26:27.130Z,6.87
2023-02-20T23:29:47.778Z,6.87
2023-02-20T23:33:08.664Z,6.82
2023-02-20T23:36:29.710Z,6.88
2023-02-20T23:39:51.130Z,7.00
2023-02-20T23:43:11.864Z,7.01
2023-02-20T23:46:33.045Z,7.03
2023-02-20T23:49:53.846Z,7.10
2023-02-20T23:53:14.818Z,7.15
2023-02-20T23:56:35.573Z,7.44
2023-02-20T23:59:56.837Z,7.72
